Time;durP1;ratioP1;P1;durP2;ratioP2;P2;SDS_P1;SDS_P2;PMS_P1;PMS_P2;Temp;Humidity;BMP_temperature;BMP_pressure;BME280_temperature;BME280_humidity;BME280_pressure;Samples;Min_cycle;Max_cycle;Signal;HPM_P1;HPM_P2
2023/09/22 00:02:52;;;;;;;0.82;0.50;;;21.90;69.00;;;;;;6267288;28;20036;-64
2023/09/22 00:05:53;;;;;;;0.60;0.50;;;21.90;69.00;;;;;;6268047;28;20044;-64
2023/09/22 00:08:53;;;;;;;0.60;0.60;;;21.90;69.00;;;;;;6263261;28;20499;-64
2023/09/22 00:11:56;;;;;;;0.93;0.60;;;21.90;69.00;;;;;;6263593;28;20024;-65
2023/09/22 00:14:58;;;;;;;0.50;0.50;;;21.90;69.00;;;;;;6267730;28;20024;-65
2023/09/22 00:17:58;;;;;;;0.60;0.40;;;21.90;69.00;;;;;;6268085;28;20028;-64
2023/09/22 00:20:59;;;;;;;0.75;0.68;;;21.90;69.90;;;;;;6267721;28;20557;-65
2023/09/22 00:24:01;;;;;;;0.47;0.40;;;21.90;69.00;;;;;;6268025;28;20040;-64
2023/09/22 00:27:02;;;;;;;0.55;0.52;;;21.90;69.00;;;;;;6267690;28;20025;-64
2023/09/22 00:30:04;;;;;;;0.40;0.40;;;21.90;69.10;;;;;;6267422;28;20056;-65
2023/09/22 00:33:04;;;;;;;0.60;0.50;;;21.90;69.00;;;;;;6266572;28;20028;-64
2023/09/22 00:36:05;;;;;;;0.40;0.40;;;21.90;69.00;;;;;;6267502;28;20036;-65
2023/09/22 00:39:06;;;;;;;0.65;0.55;;;21.90;69.00;;;;;;6267665;28;20053;-64
2023/09/22 00:42:09;;;;;;;0.57;0.50;;;21.90;69.10;;;;;;6267219;28;20033;-64
2023/09/22 00:45:10;;;;;;;0.50;0.40;;;21.90;69.10;;;;;;6267224;28;20059;-64
2023/09/22 00:48:22;;;;;;;0.50;0.50;;;21.90;69.00;;;;;;6266914;28;20016;-64
2023/09/22 00:51:23;;;;;;;0.98;0.73;;;21.90;69.10;;;;;;6265453;28;20244;-64
2023/09/22 00:54:25;;;;;;;0.50;0.40;;;21.90;69.10;;;;;;6267240;28;20029;-64
2023/09/22 00:57:26;;;;;;;0.60;0.50;;;21.90;69.10;;;;;;6266907;28;20052;-65
2023/09/22 01:00:27;;;;;;;0.52;0.40;;;21.90;69.00;;;;;;6266783;28;20029;-64
2023/09/22 01:03:29;;;;;;;0.40;0.40;;;21.90;69.00;;;;;;6267227;28;20457;-64
2023/09/22 01:06:30;;;;;;;0.50;0.50;;;21.90;69.00;;;;;;6258847;28;20104;-64
2023/09/22 01:09:31;;;;;;;0.68;0.55;;;21.90;69.10;;;;;;6266889;28;20025;-64
2023/09/22 01:12:31;;;;;;;0.40;0.40;;;21.90;69.10;;;;;;6267215;28;20365;-64
2023/09/22 01:15:36;;;;;;;0.55;0.43;;;21.90;69.00;;;;;;6267285;28;20078;-64
2023/09/22 01:18:37;;;;;;;0.63;0.50;;;21.90;69.00;;;;;;6266620;28;20031;-64
2023/09/22 01:21:38;;;;;;;0.80;0.60;;;21.90;69.10;;;;;;6266373;28;20112;-64
2023/09/22 01:24:39;;;;;;;0.95;0.70;;;21.90;69.00;;;;;;6267105;28;20032;-65
2023/09/22 01:27:39;;;;;;;0.60;0.50;;;21.90;69.10;;;;;;6266540;28;20329;-64
2023/09/22 01:30:40;;;;;;;0.60;0.50;;;21.90;69.00;;;;;;6267082;28;20178;-65
2023/09/22 01:33:41;;;;;;;0.35;0.35;;;21.90;69.10;;;;;;6266920;28;20041;-67
2023/09/22 01:36:42;;;;;;;0.50;0.43;;;21.90;69.00;;;;;;6267509;28;20037;-65
2023/09/22 01:39:43;;;;;;;0.60;0.50;;;21.90;69.00;;;;;;6267381;28;20048;-66
2023/09/22 01:42:43;;;;;;;0.43;0.40;;;21.90;69.10;;;;;;6267724;28;20032;-64
2023/09/22 01:45:44;;;;;;;0.73;0.50;;;21.90;69.10;;;;;;6267899;28;20025;-66
2023/09/22 01:48:45;;;;;;;0.60;0.40;;;21.90;69.00;;;;;;6265585;28;20112;-66
2023/09/22 01:51:45;;;;;;;0.80;0.50;;;21.90;69.10;;;;;;6265786;28;20325;-67
2023/09/22 01:54:46;;;;;;;0.73;0.50;;;21.90;69.10;;;;;;6267555;28;20032;-65
2023/09/22 01:57:50;;;;;;;0.63;0.50;;;21.90;69.10;;;;;;6267670;28;20025;-65
2023/09/22 02:00:51;;;;;;;0.50;0.50;;;21.90;69.90;;;;;;6267614;28;20052;-65
2023/09/22 02:03:52;;;;;;;0.60;0.50;;;21.90;69.10;;;;;;6271859;28;20028;-65
2023/09/22 02:06:53;;;;;;;0.50;0.50;;;21.90;69.10;;;;;;6271741;28;20044;-63
2023/09/22 02:09:53;;;;;;;0.60;0.57;;;21.90;69.10;;;;;;6268894;28;20021;-64
2023/09/22 02:12:54;;;;;;;0.30;0.30;;;21.90;69.10;;;;;;6271474;28;20013;-64
2023/09/22 02:15:55;;;;;;;0.68;0.60;;;21.90;69.10;;;;;;6269639;28;20048;-65
2023/09/22 02:18:56;;;;;;;2.17;0.57;;;21.90;69.90;;;;;;6269753;28;20056;-65
2023/09/22 02:21:57;;;;;;;1.25;0.63;;;21.90;69.10;;;;;;6270495;28;20100;-65
2023/09/22 02:24:58;;;;;;;0.57;0.50;;;21.90;69.10;;;;;;6271159;28;20112;-64
2023/09/22 02:27:58;;;;;;;0.60;0.60;;;21.90;69.10;;;;;;6270037;28;20546;-64
2023/09/22 02:30:59;;;;;;;0.65;0.45;;;21.90;69.10;;;;;;6270829;28;20045;-64
2023/09/22 02:34:01;;;;;;;0.57;0.40;;;21.90;69.10;;;;;;6270838;28;20078;-65
2023/09/22 02:37:01;;;;;;;0.55;0.55;;;21.90;69.10;;;;;;6270399;28;20021;-65
2023/09/22 02:40:02;;;;;;;0.90;0.50;;;21.90;69.10;;;;;;6269812;28;20399;-64
2023/09/22 02:43:03;;;;;;;0.47;0.47;;;21.90;69.10;;;;;;6270111;28;20028;-65
2023/09/22 02:46:04;;;;;;;1.20;0.55;;;21.90;69.10;;;;;;6268955;28;20086;-64
2023/09/22 02:49:05;;;;;;;0.40;0.30;;;21.90;69.10;;;;;;6270007;28;20537;-65
2023/09/22 02:52:06;;;;;;;0.50;0.50;;;21.90;69.10;;;;;;6260449;28;20013;-65
2023/09/22 02:55:08;;;;;;;0.82;0.60;;;21.90;69.10;;;;;;6269680;28;20021;-65
2023/09/22 02:58:08;;;;;;;0.77;0.52;;;21.90;69.10;;;;;;6269757;28;20488;-65
2023/09/22 03:01:09;;;;;;;0.50;0.50;;;21.90;69.10;;;;;;6268236;28;20053;-65
2023/09/22 03:04:10;;;;;;;0.77;0.60;;;21.90;69.10;;;;;;6267935;28;20033;-65
2023/09/22 03:07:12;;;;;;;0.50;0.50;;;21.90;69.10;;;;;;6268103;28;20032;-65
2023/09/22 03:10:13;;;;;;;0.63;0.50;;;21.90;69.10;;;;;;6269383;28;20092;-65
2023/09/22 03:13:14;;;;;;;0.50;0.40;;;21.90;69.10;;;;;;6269267;28;20361;-65
2023/09/22 03:16:15;;;;;;;0.65;0.50;;;21.90;69.10;;;;;;6266676;28;20071;-65
2023/09/22 03:19:15;;;;;;;0.70;0.50;;;21.90;69.10;;;;;;6269486;28;20554;-65
2023/09/22 03:22:16;;;;;;;0.70;0.65;;;21.90;69.10;;;;;;6269348;28;20013;-65
2023/09/22 03:25:17;;;;;;;0.82;0.70;;;21.90;69.10;;;;;;6267766;28;20502;-64
2023/09/22 03:28:19;;;;;;;0.77;0.70;;;21.90;70.00;;;;;;6269062;28;20033;-65
2023/09/22 03:31:20;;;;;;;0.43;0.40;;;21.90;69.20;;;;;;6269073;28;20021;-65
2023/09/22 03:34:21;;;;;;;0.40;0.35;;;21.90;69.10;;;;;;6268862;28;20029;-65
2023/09/22 03:37:27;;;;;;;0.60;0.55;;;21.90;69.20;;;;;;6268643;28;20076;-65
2023/09/22 03:40:40;;;;;;;0.50;0.50;;;21.90;69.20;;;;;;6268588;28;20021;-64
2023/09/22 03:43:43;;;;;;;0.35;0.30;;;21.90;69.10;;;;;;6262126;28;20024;-65
2023/09/22 03:46:44;;;;;;;0.65;0.57;;;21.90;69.10;;;;;;6269212;28;20051;-64
2023/09/22 03:49:45;;;;;;;0.68;0.60;;;21.90;69.10;;;;;;6268462;28;20013;-65
2023/09/22 03:52:46;;;;;;;0.60;0.60;;;21.90;69.10;;;;;;6268408;28;20028;-64
2023/09/22 03:55:47;;;;;;;1.10;0.63;;;21.90;69.10;;;;;;6268346;28;20056;-65
2023/09/22 03:58:48;;;;;;;0.60;0.60;;;21.90;69.10;;;;;;6261904;28;20026;-65
2023/09/22 04:01:49;;;;;;;0.68;0.60;;;21.90;69.00;;;;;;6268298;28;20032;-65
2023/09/22 04:04:50;;;;;;;0.60;0.55;;;21.90;69.00;;;;;;6268222;28;20029;-65
2023/09/22 04:07:54;;;;;;;1.27;0.70;;;21.90;69.00;;;;;;6268461;28;20522;-65
2023/09/22 04:10:54;;;;;;;0.70;0.70;;;21.90;69.10;;;;;;6268090;28;20082;-66
2023/09/22 04:13:55;;;;;;;0.88;0.63;;;21.90;69.00;;;;;;6268558;28;20020;-65
2023/09/22 04:16:55;;;;;;;0.82;0.73;;;21.90;69.00;;;;;;6268060;28;20491;-65
2023/09/22 04:19:57;;;;;;;1.35;0.70;;;21.90;69.00;;;;;;6264453;28;20029;-64
2023/09/22 04:22:58;;;;;;;0.98;0.77;;;21.90;69.10;;;;;;6255426;28;20104;-64
2023/09/22 04:26:02;;;;;;;0.82;0.68;;;21.90;69.00;;;;;;6268276;28;20056;-65
2023/09/22 04:29:05;;;;;;;0.73;0.70;;;21.90;69.00;;;;;;6267347;28;20495;-64
2023/09/22 04:32:06;;;;;;;1.00;0.90;;;21.90;69.00;;;;;;6267741;28;20108;-65
2023/09/22 04:35:07;;;;;;;1.77;0.77;;;21.90;69.10;;;;;;6268023;28;20237;-65
2023/09/22 04:38:09;;;;;;;0.60;0.60;;;21.90;69.00;;;;;;6267255;28;20041;-65
2023/09/22 04:41:10;;;;;;;0.95;0.70;;;21.90;69.00;;;;;;6267369;28;20351;-65
2023/09/22 04:44:11;;;;;;;1.10;0.70;;;21.90;69.10;;;;;;6267981;28;20095;-64
2023/09/22 04:47:12;;;;;;;0.95;0.77;;;21.90;69.10;;;;;;6266779;28;20048;-64
2023/09/22 04:50:15;;;;;;;0.88;0.70;;;21.90;69.00;;;;;;6268022;28;20092;-65
2023/09/22 04:53:16;;;;;;;0.50;0.50;;;21.90;69.00;;;;;;6267472;28;20340;-65
2023/09/22 04:56:16;;;;;;;0.75;0.60;;;21.90;69.00;;;;;;6265974;28;20025;-65
2023/09/22 04:59:17;;;;;;;0.90;0.70;;;21.90;69.10;;;;;;6267292;28;20025;-64
2023/09/22 05:02:18;;;;;;;0.80;0.68;;;21.90;69.10;;;;;;6260758;28;20120;-64
2023/09/22 05:05:19;;;;;;;0.95;0.50;;;21.90;69.00;;;;;;6267093;28;20021;-63
2023/09/22 05:08:20;;;;;;;0.70;0.60;;;21.90;69.00;;;;;;6267196;28;20028;-65
2023/09/22 05:11:21;;;;;;;0.90;0.75;;;21.90;69.10;;;;;;6259427;28;20017;-65
2023/09/22 05:14:21;;;;;;;0.93;0.77;;;21.90;69.00;;;;;;6267286;28;20108;-65
2023/09/22 05:17:22;;;;;;;0.65;0.57;;;21.90;69.10;;;;;;6264862;28;20108;-64
2023/09/22 05:20:24;;;;;;;1.15;0.70;;;21.90;69.10;;;;;;6267423;28;20108;-65
2023/09/22 05:23:24;;;;;;;0.93;0.75;;;21.90;69.10;;;;;;6267042;28;20033;-65
2023/09/22 05:26:25;;;;;;;0.77;0.73;;;21.90;69.10;;;;;;6267129;28;20398;-65
2023/09/22 05:29:26;;;;;;;1.60;0.75;;;21.90;69.10;;;;;;6267028;28;20021;-64
2023/09/22 05:32:27;;;;;;;1.40;0.70;;;21.90;69.10;;;;;;6258860;28;20052;-65
2023/09/22 05:35:27;;;;;;;0.65;0.57;;;21.90;69.10;;;;;;6268064;28;20013;-64
2023/09/22 05:38:29;;;;;;;0.60;0.60;;;21.90;69.10;;;;;;6271590;28;20487;-64
2023/09/22 05:41:30;;;;;;;0.80;0.70;;;21.90;69.10;;;;;;6268454;28;20107;-65
2023/09/22 05:44:32;;;;;;;0.73;0.63;;;21.90;69.10;;;;;;6265877;28;20629;-63
2023/09/22 05:47:34;;;;;;;1.52;0.68;;;21.90;69.10;;;;;;6273775;28;20021;-64
2023/09/22 05:50:36;;;;;;;0.60;0.50;;;21.90;69.10;;;;;;6267192;28;20017;-63
2023/09/22 05:53:37;;;;;;;0.75;0.55;;;21.90;69.10;;;;;;6268473;28;20028;-64
2023/09/22 05:56:40;;;;;;;1.67;0.70;;;21.90;69.10;;;;;;6265517;28;20064;-63
2023/09/22 05:59:41;;;;;;;0.80;0.60;;;21.90;69.10;;;;;;6269154;28;20074;-64
2023/09/22 06:02:49;;;;;;;0.70;0.60;;;21.90;69.10;;;;;;6274178;28;20025;-62
2023/09/22 06:05:50;;;;;;;0.82;0.65;;;21.90;69.10;;;;;;6269415;28;20083;-63
2023/09/22 06:08:51;;;;;;;0.70;0.50;;;21.90;69.10;;;;;;6268334;28;20483;-62
2023/09/22 06:11:51;;;;;;;0.73;0.60;;;21.90;69.10;;;;;;6281528;28;20043;-63
2023/09/22 06:14:52;;;;;;;0.50;0.50;;;21.90;69.10;;;;;;6277669;28;20607;-61
2023/09/22 06:17:53;;;;;;;0.95;0.70;;;21.90;69.10;;;;;;6273560;28;20029;-62
2023/09/22 06:20:59;;;;;;;0.85;0.60;;;21.90;69.10;;;;;;6272734;28;20037;-63
2023/09/22 06:23:59;;;;;;;2.92;1.08;;;21.90;69.20;;;;;;6266241;28;20060;-63
2023/09/22 06:27:00;;;;;;;0.80;0.63;;;21.90;69.20;;;;;;6288452;28;20482;-63
2023/09/22 06:30:03;;;;;;;0.50;0.50;;;21.90;69.10;;;;;;6280071;28;20020;-63
2023/09/22 06:33:04;;;;;;;0.93;0.63;;;21.90;69.20;;;;;;6273109;28;20053;-62
2023/09/22 06:36:05;;;;;;;0.57;0.55;;;21.90;69.20;;;;;;6272628;28;20395;-62
2023/09/22 06:39:09;;;;;;;0.57;0.55;;;21.90;69.20;;;;;;6273871;28;20503;-62
2023/09/22 06:42:10;;;;;;;1.50;0.60;;;21.90;69.20;;;;;;6275221;28;20025;-63
2023/09/22 06:45:16;;;;;;;0.70;0.60;;;21.90;69.20;;;;;;6272740;28;20460;-63
2023/09/22 06:48:17;;;;;;;0.65;0.60;;;21.90;69.20;;;;;;6267538;28;20017;-63
2023/09/22 06:51:18;;;;;;;0.50;0.50;;;21.90;69.20;;;;;;6269129;28;20461;-62
2023/09/22 06:54:20;;;;;;;1.00;0.63;;;21.90;69.20;;;;;;6272181;28;20021;-62
2023/09/22 06:57:21;;;;;;;0.65;0.57;;;21.90;69.20;;;;;;6287457;28;20029;-62
2023/09/22 07:00:26;;;;;;;0.75;0.50;;;21.90;69.20;;;;;;6272074;28;20024;-63
2023/09/22 07:03:27;;;;;;;1.20;0.50;;;21.90;69.20;;;;;;6275297;28;20051;-62
2023/09/22 07:06:27;;;;;;;0.55;0.55;;;21.90;70.10;;;;;;6283833;28;20060;-62
2023/09/22 07:09:28;;;;;;;0.63;0.60;;;21.90;69.20;;;;;;6276634;28;20029;-62
2023/09/22 07:12:30;;;;;;;0.80;0.70;;;21.90;69.20;;;;;;6271776;28;20021;-62
2023/09/22 07:15:31;;;;;;;0.50;0.50;;;21.90;69.20;;;;;;6275548;28;20040;-66
2023/09/22 07:18:32;;;;;;;0.65;0.55;;;21.90;69.20;;;;;;6265886;28;20052;-66
2023/09/22 07:21:34;;;;;;;1.80;0.80;;;21.90;69.20;;;;;;6273821;28;20100;-66
2023/09/22 07:24:35;;;;;;;0.82;0.60;;;21.90;69.20;;;;;;6269776;28;20028;-66
2023/09/22 07:27:39;;;;;;;0.60;0.60;;;21.90;69.20;;;;;;6271084;28;20021;-67
2023/09/22 07:30:40;;;;;;;0.93;0.75;;;21.90;69.20;;;;;;6266552;28;20067;-66
2023/09/22 07:33:43;;;;;;;0.80;0.63;;;21.90;69.20;;;;;;6269763;28;20060;-65
2023/09/22 07:36:43;;;;;;;0.47;0.40;;;21.90;69.20;;;;;;6269791;28;20025;-66
2023/09/22 07:39:44;;;;;;;1.25;0.70;;;21.90;69.20;;;;;;6272814;28;20400;-66
2023/09/22 07:42:45;;;;;;;0.75;0.40;;;21.90;69.20;;;;;;6270000;28;20071;-66
2023/09/22 07:45:47;;;;;;;0.70;0.40;;;21.90;69.20;;;;;;6269731;28;20049;-66
2023/09/22 07:48:51;;;;;;;0.60;0.50;;;21.90;69.20;;;;;;6278100;28;20075;-66
2023/09/22 07:51:52;;;;;;;0.55;0.52;;;21.90;69.20;;;;;;6268885;28;20027;-66
2023/09/22 07:54:54;;;;;;;0.82;0.60;;;21.90;69.20;;;;;;6274059;28;20044;-62
2023/09/22 07:57:55;;;;;;;0.70;0.60;;;21.90;69.20;;;;;;6279177;28;20017;-61
2023/09/22 08:00:58;;;;;;;0.60;0.60;;;21.90;69.20;;;;;;6269485;28;20029;-61
2023/09/22 08:03:59;;;;;;;0.45;0.45;;;21.90;69.20;;;;;;6269147;28;20542;-61
2023/09/22 08:07:00;;;;;;;0.50;0.50;;;21.90;69.20;;;;;;6269967;28;20033;-61
2023/09/22 08:10:00;;;;;;;0.55;0.52;;;21.90;69.20;;;;;;6268171;28;20475;-62
2023/09/22 08:13:02;;;;;;;0.47;0.47;;;21.90;69.20;;;;;;6269023;28;20096;-61
2023/09/22 08:16:07;;;;;;;0.82;0.60;;;21.90;69.20;;;;;;6269821;28;20025;-61
2023/09/22 08:19:11;;;;;;;0.60;0.60;;;21.90;69.20;;;;;;6270125;28;20029;-62
2023/09/22 08:22:12;;;;;;;0.40;0.40;;;21.90;69.20;;;;;;6267375;28;20025;-61
2023/09/22 08:25:14;;;;;;;0.50;0.50;;;21.90;69.20;;;;;;6267318;28;20032;-62
2023/09/22 08:28:14;;;;;;;2.25;0.70;;;21.90;69.20;;;;;;6270722;28;20026;-62
2023/09/22 08:31:15;;;;;;;0.60;0.50;;;21.90;69.20;;;;;;6272269;28;20032;-62
2023/09/22 08:34:16;;;;;;;0.90;0.40;;;21.90;69.10;;;;;;6269489;28;20109;-62
2023/09/22 08:37:17;;;;;;;0.75;0.50;;;22.00;69.00;;;;;;6265453;28;20025;-61
2023/09/22 08:40:17;;;;;;;0.60;0.50;;;22.00;69.00;;;;;;6265954;28;20057;-61
2023/09/22 08:43:18;;;;;;;0.82;0.60;;;22.00;68.90;;;;;;6271016;28;20021;-62
2023/09/22 08:46:19;;;;;;;0.60;0.50;;;22.00;69.10;;;;;;6269554;28;20021;-60
2023/09/22 08:49:23;;;;;;;0.47;0.43;;;22.00;69.10;;;;;;6269425;28;20024;-61
2023/09/22 08:52:24;;;;;;;0.90;0.50;;;21.90;69.00;;;;;;6265438;28;20067;-61
2023/09/22 08:55:26;;;;;;;0.55;0.52;;;21.90;69.10;;;;;;6269161;28;20113;-61
2023/09/22 08:58:26;;;;;;;0.80;0.70;;;21.90;69.10;;;;;;6269568;28;20021;-61
2023/09/22 09:01:28;;;;;;;0.63;0.50;;;21.90;69.10;;;;;;6266382;28;20600;-63
2023/09/22 09:04:34;;;;;;;0.68;0.40;;;21.90;69.10;;;;;;6261265;28;20262;-63
2023/09/22 09:07:35;;;;;;;0.80;0.60;;;21.90;69.10;;;;;;6270356;28;20107;-62
2023/09/22 09:10:36;;;;;;;0.70;0.60;;;21.90;69.10;;;;;;6266928;28;20020;-62
2023/09/22 09:13:38;;;;;;;0.55;0.50;;;21.90;69.10;;;;;;6265718;28;20155;-62
2023/09/22 09:16:39;;;;;;;0.50;0.43;;;21.90;69.20;;;;;;6269218;28;20040;-62
2023/09/22 09:19:40;;;;;;;0.90;0.60;;;21.90;69.20;;;;;;6269398;28;20022;-62
2023/09/22 09:22:40;;;;;;;1.00;0.60;;;21.90;69.20;;;;;;6267128;28;20067;-62
2023/09/22 09:25:54;;;;;;;0.50;0.50;;;21.90;69.20;;;;;;6280686;28;20471;-63
2023/09/22 09:28:55;;;;;;;0.95;0.60;;;21.90;69.20;;;;;;6256850;28;20030;-61
2023/09/22 09:32:00;;;;;;;0.77;0.50;;;21.90;69.20;;;;;;6263014;28;20062;-61
2023/09/22 09:35:01;;;;;;;0.57;0.40;;;21.90;69.20;;;;;;6270774;28;20391;-62
2023/09/22 09:38:03;;;;;;;0.93;0.60;;;21.90;69.20;;;;;;6262712;28;20053;-63
2023/09/22 09:41:04;;;;;;;0.80;0.60;;;21.90;69.20;;;;;;6264812;28;20025;-62
2023/09/22 09:44:07;;;;;;;0.70;0.40;;;21.90;69.20;;;;;;6269435;28;20029;-62
2023/09/22 09:47:10;;;;;;;0.63;0.57;;;22.00;69.20;;;;;;6271448;28;20383;-63
2023/09/22 09:50:12;;;;;;;1.48;0.50;;;22.00;69.20;;;;;;6277131;28;20025;-63
2023/09/22 09:53:24;;;;;;;1.33;0.75;;;22.00;69.70;;;;;;6262279;28;20490;-63
2023/09/22 09:56:26;;;;;;;14.18;1.33;;;22.10;70.00;;;;;;6269492;28;20039;-63
2023/09/22 09:59:27;;;;;;;5.43;0.90;;;22.10;70.10;;;;;;6266273;28;20647;-63
2023/09/22 10:02:29;;;;;;;1.95;0.80;;;22.00;70.30;;;;;;6269110;28;20033;-62
2023/09/22 10:05:32;;;;;;;3.40;0.63;;;22.00;70.50;;;;;;6268188;28;20056;-61
2023/09/22 10:08:33;;;;;;;1.67;0.65;;;22.00;70.40;;;;;;6273247;28;20070;-61
2023/09/22 10:11:34;;;;;;;1.65;0.60;;;22.00;70.40;;;;;;6268839;28;20037;-62
2023/09/22 10:14:51;;;;;;;7.53;0.80;;;22.00;70.10;;;;;;6259998;28;20036;-62
2023/09/22 10:17:55;;;;;;;0.88;0.60;;;22.00;70.20;;;;;;6265488;28;20021;-63
2023/09/22 10:20:56;;;;;;;0.90;0.57;;;22.00;69.90;;;;;;6266161;28;20035;-62
2023/09/22 10:24:27;;;;;;;4.05;0.80;;;22.00;69.90;;;;;;6280930;28;20431;-65
2023/09/22 10:27:28;;;;;;;1.65;0.65;;;22.00;69.80;;;;;;6260263;28;20406;-63
2023/09/22 10:31:02;;;;;;;1.33;0.60;;;21.90;69.70;;;;;;6264471;28;20028;-63
2023/09/22 10:34:52;;;;;;;1.45;0.55;;;22.00;69.90;;;;;;6244568;28;20040;-63
2023/09/22 10:38:04;;;;;;;1.25;0.50;;;22.00;69.90;;;;;;6270468;28;20044;-63
2023/09/22 10:41:05;;;;;;;0.73;0.60;;;22.00;69.90;;;;;;6282282;28;20029;-62
2023/09/22 10:44:06;;;;;;;0.77;0.50;;;21.90;69.70;;;;;;6261572;28;20022;-63
2023/09/22 10:47:07;;;;;;;1.00;0.52;;;22.00;69.80;;;;;;6265547;28;20459;-63
2023/09/22 10:50:19;;;;;;;1.42;0.70;;;22.00;69.60;;;;;;6281857;28;20021;-62
2023/09/22 10:53:21;;;;;;;0.85;0.40;;;22.00;69.50;;;;;;6277980;28;20017;-63
2023/09/22 10:56:21;;;;;;;2.55;0.50;;;22.10;69.50;;;;;;6271464;28;20487;-62
2023/09/22 10:59:31;;;;;;;0.30;0.30;;;22.10;69.50;;;;;;6272617;28;20032;-62
2023/09/22 11:02:33;;;;;;;1.27;0.52;;;22.10;69.60;;;;;;6276253;28;20032;-63
2023/09/22 11:05:35;;;;;;;1.35;0.50;;;22.10;69.60;;;;;;6283522;28;20116;-62
2023/09/22 11:08:56;;;;;;;1.45;0.55;;;22.10;69.70;;;;;;6284963;28;20552;-62
2023/09/22 11:11:57;;;;;;;0.68;0.40;;;22.10;69.50;;;;;;6278100;28;20498;-63
2023/09/22 11:15:00;;;;;;;0.70;0.50;;;22.10;69.60;;;;;;6275059;28;20024;-62
2023/09/22 11:18:01;;;;;;;0.50;0.50;;;22.10;69.90;;;;;;6279081;28;20021;-63
2023/09/22 11:21:09;;;;;;;0.57;0.45;;;22.10;70.10;;;;;;6282312;28;20075;-61
2023/09/22 11:24:10;;;;;;;1.83;0.50;;;22.10;70.10;;;;;;6272331;28;20375;-62
2023/09/22 11:27:11;;;;;;;1.35;0.60;;;22.00;69.90;;;;;;6270341;28;20040;-63
2023/09/22 11:30:14;;;;;;;0.77;0.50;;;22.00;70.00;;;;;;6267130;28;20025;-63
2023/09/22 11:33:18;;;;;;;0.80;0.50;;;22.10;69.80;;;;;;6267052;28;20029;-62
2023/09/22 11:36:18;;;;;;;1.67;0.50;;;22.10;69.90;;;;;;6263388;28;20033;-63
2023/09/22 11:39:30;;;;;;;1.85;0.55;;;22.00;69.90;;;;;;6261477;28;20411;-63
2023/09/22 11:42:31;;;;;;;0.73;0.50;;;22.00;69.80;;;;;;6274727;28;20142;-63
2023/09/22 11:45:32;;;;;;;1.35;0.45;;;22.00;70.00;;;;;;6273179;28;20380;-63
2023/09/22 11:48:50;;;;;;;1.38;0.50;;;22.00;70.00;;;;;;6266111;28;20025;-62
2023/09/22 11:51:56;;;;;;;0.90;0.50;;;22.00;69.90;;;;;;6269290;28;20110;-62
2023/09/22 11:54:57;;;;;;;0.43;0.40;;;22.00;69.90;;;;;;6262478;28;20049;-63
2023/09/22 11:57:58;;;;;;;0.55;0.50;;;22.00;69.90;;;;;;6262837;28;20048;-62
2023/09/22 12:01:00;;;;;;;0.75;0.60;;;22.00;69.90;;;;;;6273534;28;20117;-63
2023/09/22 12:04:02;;;;;;;0.82;0.40;;;22.00;69.80;;;;;;6274077;28;20013;-62
2023/09/22 12:07:02;;;;;;;1.77;0.70;;;22.00;69.80;;;;;;6275028;28;20103;-63
2023/09/22 12:10:07;;;;;;;1.05;0.55;;;22.00;69.80;;;;;;6270650;28;20021;-63
2023/09/22 12:13:08;;;;;;;0.45;0.45;;;22.00;69.80;;;;;;6265529;28;20096;-61
2023/09/22 12:16:09;;;;;;;0.57;0.40;;;22.00;69.80;;;;;;6273762;28;20037;-62
2023/09/22 12:19:10;;;;;;;3.75;0.50;;;22.00;69.70;;;;;;6262982;28;20545;-63
2023/09/22 12:22:11;;;;;;;1.25;0.40;;;22.00;69.80;;;;;;6268522;28;20025;-63
2023/09/22 12:25:11;;;;;;;1.95;0.55;;;22.00;69.80;;;;;;6267430;28;20383;-63
2023/09/22 12:28:12;;;;;;;0.70;0.50;;;22.00;70.60;;;;;;6272783;28;20484;-63
2023/09/22 12:31:13;;;;;;;0.57;0.45;;;22.00;69.80;;;;;;6265275;28;20052;-62
2023/09/22 12:34:13;;;;;;;0.70;0.47;;;22.00;69.80;;;;;;6268546;28;20613;-61
2023/09/22 12:37:14;;;;;;;0.50;0.45;;;22.00;69.90;;;;;;6270793;28;20037;-62
2023/09/22 12:40:15;;;;;;;1.33;0.50;;;22.00;69.80;;;;;;6279242;28;20070;-63
2023/09/22 12:43:15;;;;;;;0.73;0.40;;;22.00;69.80;;;;;;6274292;28;20017;-63
2023/09/22 12:46:16;;;;;;;0.47;0.40;;;22.00;69.90;;;;;;6274895;28;20086;-61
2023/09/22 12:49:17;;;;;;;0.85;0.40;;;22.00;69.80;;;;;;6278197;28;20048;-61
2023/09/22 12:52:17;;;;;;;0.63;0.50;;;22.00;69.70;;;;;;6266874;28;20445;-62
2023/09/22 12:55:18;;;;;;;0.60;0.40;;;22.00;69.70;;;;;;6270052;28;20048;-62
2023/09/22 12:58:19;;;;;;;0.60;0.35;;;22.00;69.70;;;;;;6274933;28;20059;-62
2023/09/22 13:01:19;;;;;;;0.20;0.20;;;22.00;69.70;;;;;;6271051;28;20032;-62
2023/09/22 13:04:20;;;;;;;0.50;0.40;;;22.00;69.70;;;;;;6272944;28;20082;-62
2023/09/22 13:07:21;;;;;;;0.40;0.40;;;22.00;69.70;;;;;;6270058;28;20523;-62
2023/09/22 13:10:22;;;;;;;0.65;0.50;;;22.00;69.70;;;;;;6263199;28;20871;-62
2023/09/22 13:13:22;;;;;;;1.00;0.60;;;22.00;69.70;;;;;;6268529;28;20033;-62
2023/09/22 13:16:23;;;;;;;0.70;0.50;;;22.00;69.60;;;;;;6270065;28;20626;-62
2023/09/22 13:19:24;;;;;;;0.40;0.30;;;22.00;69.60;;;;;;6254195;28;20036;-62
2023/09/22 13:22:25;;;;;;;0.52;0.45;;;22.00;69.70;;;;;;6264875;28;20020;-62
2023/09/22 13:25:25;;;;;;;0.35;0.22;;;22.00;69.60;;;;;;6267962;28;20025;-62
2023/09/22 13:28:27;;;;;;;0.80;0.43;;;22.00;69.60;;;;;;6272652;28;20021;-62
2023/09/22 13:31:28;;;;;;;0.60;0.47;;;22.00;69.70;;;;;;6265112;28;20013;-61
2023/09/22 13:34:32;;;;;;;1.33;0.35;;;22.00;69.70;;;;;;6268664;28;20039;-62
2023/09/22 13:37:32;;;;;;;0.50;0.50;;;22.00;69.70;;;;;;6269382;28;20436;-61
2023/09/22 13:40:34;;;;;;;0.32;0.32;;;22.00;69.60;;;;;;6263951;28;20047;-60
2023/09/22 13:43:34;;;;;;;1.25;0.50;;;22.00;69.60;;;;;;6267632;28;20037;-60
2023/09/22 13:46:36;;;;;;;0.95;0.70;;;22.00;69.60;;;;;;6263105;28;20024;-62
2023/09/22 13:49:37;;;;;;;1.63;0.50;;;22.00;69.60;;;;;;6270391;28;20021;-62
2023/09/22 13:52:38;;;;;;;0.63;0.40;;;22.00;69.70;;;;;;6275740;28;20040;-62
2023/09/22 13:55:39;;;;;;;0.40;0.40;;;22.00;69.60;;;;;;6269118;28;20066;-63
2023/09/22 13:58:41;;;;;;;0.77;0.57;;;22.00;69.60;;;;;;6271892;28;20040;-62
2023/09/22 14:01:42;;;;;;;0.60;0.40;;;22.00;69.70;;;;;;6258387;28;20021;-62
2023/09/22 14:04:43;;;;;;;2.63;0.40;;;22.00;69.60;;;;;;6272840;28;20039;-62
2023/09/22 14:07:43;;;;;;;0.40;0.35;;;22.00;69.60;;;;;;6271779;28;20035;-61
2023/09/22 14:10:44;;;;;;;0.35;0.30;;;22.00;69.60;;;;;;6268290;28;20484;-63
2023/09/22 14:13:45;;;;;;;0.95;0.50;;;22.00;69.60;;;;;;6280441;28;20021;-62
2023/09/22 14:16:47;;;;;;;0.40;0.40;;;22.00;69.60;;;;;;6268468;28;20052;-61
2023/09/22 14:19:48;;;;;;;0.47;0.32;;;22.00;69.70;;;;;;6273719;28;20028;-62
2023/09/22 14:22:50;;;;;;;0.45;0.40;;;22.00;69.70;;;;;;6262090;28;20088;-63
2023/09/22 14:25:50;;;;;;;1.63;0.30;;;22.00;69.70;;;;;;6266714;28;20106;-61
2023/09/22 14:28:51;;;;;;;0.68;0.50;;;22.00;69.70;;;;;;6272057;28;20021;-63
2023/09/22 14:31:52;;;;;;;0.40;0.40;;;22.00;69.70;;;;;;6271269;28;20025;-63
2023/09/22 14:34:54;;;;;;;0.60;0.40;;;22.00;69.70;;;;;;6286361;28;20031;-62
2023/09/22 14:37:55;;;;;;;0.40;0.38;;;22.00;69.70;;;;;;6272160;28;20140;-63
2023/09/22 14:40:56;;;;;;;0.32;0.30;;;22.00;69.70;;;;;;6262033;28;20398;-62
2023/09/22 14:43:56;;;;;;;0.50;0.50;;;22.00;69.70;;;;;;6275947;28;20029;-63
2023/09/22 14:46:57;;;;;;;0.40;0.30;;;22.00;69.70;;;;;;6272293;28;20384;-65
2023/09/22 14:49:58;;;;;;;0.35;0.35;;;22.00;69.60;;;;;;6271399;28;20383;-64
2023/09/22 14:52:59;;;;;;;2.88;0.32;;;22.00;69.60;;;;;;6271167;28;20052;-66
2023/09/22 14:56:00;;;;;;;0.63;0.47;;;21.90;69.50;;;;;;6264104;28;20083;-65
2023/09/22 14:59:00;;;;;;;1.23;0.52;;;21.90;69.50;;;;;;6272430;28;20051;-64
2023/09/22 15:02:02;;;;;;;0.40;0.40;;;22.00;69.60;;;;;;6283242;28;20383;-64
2023/09/22 15:05:03;;;;;;;1.17;0.35;;;22.00;69.70;;;;;;6273066;28;20023;-62
2023/09/22 15:08:04;;;;;;;0.30;0.30;;;21.90;69.50;;;;;;6272567;28;20032;-61
2023/09/22 15:11:05;;;;;;;0.40;0.40;;;22.00;69.60;;;;;;6267029;28;20090;-61
2023/09/22 15:14:06;;;;;;;0.47;0.47;;;21.90;69.50;;;;;;6265991;28;20029;-63
2023/09/22 15:17:10;;;;;;;0.32;0.32;;;22.00;69.60;;;;;;6271035;28;20017;-62
2023/09/22 15:20:11;;;;;;;0.73;0.50;;;22.00;69.60;;;;;;6267072;28;20025;-63
2023/09/22 15:23:11;;;;;;;0.45;0.25;;;22.00;69.60;;;;;;6267377;28;20264;-63
2023/09/22 15:26:12;;;;;;;2.25;0.50;;;22.00;69.60;;;;;;6277338;28;20104;-62
2023/09/22 15:29:13;;;;;;;0.68;0.47;;;22.00;69.70;;;;;;6271485;28;20089;-63
2023/09/22 15:32:14;;;;;;;0.45;0.40;;;22.00;69.70;;;;;;6270833;28;20092;-62
2023/09/22 15:35:15;;;;;;;0.40;0.40;;;21.90;69.50;;;;;;6262154;28;20035;-63
2023/09/22 15:38:16;;;;;;;0.52;0.45;;;21.90;69.60;;;;;;6260953;28;20056;-63
2023/09/22 15:41:17;;;;;;;0.50;0.40;;;22.00;69.70;;;;;;6266766;28;20049;-61
2023/09/22 15:44:18;;;;;;;0.50;0.50;;;22.00;69.70;;;;;;6265519;28;20025;-63
2023/09/22 15:47:19;;;;;;;0.50;0.40;;;22.00;69.60;;;;;;6283179;28;20036;-61
2023/09/22 15:50:21;;;;;;;0.95;0.35;;;22.00;69.60;;;;;;6266869;28;20028;-63